createdAt,value
2019-04-20T15:22:47.574Z,20.10
2019-04-20T15:25:19.381Z,20.00
2019-04-20T15:27:52.352Z,20.10
2019-04-20T15:30:22.428Z,20.10
2019-04-20T15:32:52.550Z,19.90
2019-04-20T15:35:24.728Z,19.80
2019-04-20T15:37:55.722Z,19.90
2019-04-20T15:40:26.857Z,19.70
2019-04-20T15:43:09.562Z,19.70
2019-04-20T15:45:31.676Z,19.60
2019-04-20T15:48:01.802Z,19.70
2019-04-20T15:50:31.811Z,19.70
2019-04-20T15:53:02.618Z,19.60
2019-04-20T15:55:37.920Z,19.60
2019-04-20T15:58:06.414Z,19.70
2019-04-20T16:00:36.404Z,19.70
2019-04-20T16:03:19.574Z,19.70
2019-04-20T16:05:58.806Z,19.60
2019-04-20T16:08:34.768Z,19.50
2019-04-20T16:11:07.126Z,19.50
2019-04-20T16:13:41.950Z,19.40
2019-04-20T16:16:12.386Z,19.30
2019-04-20T16:18:45.308Z,19.10
2019-04-20T16:21:23.991Z,19.10
2019-04-20T16:23:56.913Z,19.20
2019-04-20T16:26:41.804Z,19.10
2019-04-20T16:29:15.388Z,19.10
2019-04-20T16:31:50.268Z,19.00
2019-04-20T16:34:21.408Z,18.90
2019-04-20T16:36:53.459Z,18.80
2019-04-20T16:39:24.762Z,18.80
2019-04-20T16:41:56.103Z,18.70
2019-04-20T16:44:27.214Z,18.60
2019-04-20T16:46:58.379Z,18.60
2019-04-20T16:49:32.783Z,18.50
2019-04-20T16:52:05.111Z,18.40
2019-04-20T16:54:43.871Z,18.40
2019-04-20T16:57:15.615Z,18.40
2019-04-20T16:59:51.244Z,18.30
2019-04-20T17:02:19.921Z,18.30
2019-04-20T17:04:53.263Z,18.30
2019-04-20T17:07:29.044Z,18.20
2019-04-20T17:10:00.006Z,18.20
2019-04-20T17:12:30.148Z,18.10
2019-04-20T17:15:01.405Z,18.10
2019-04-20T17:17:31.635Z,18.00
2019-04-20T17:20:01.894Z,18.00
2019-04-20T17:22:32.031Z,17.90
2019-04-20T17:25:03.994Z,17.80
2019-04-20T17:27:59.255Z,17.80
2019-04-20T17:30:54.694Z,17.80
2019-04-20T17:34:02.617Z,17.80
2019-04-20T17:36:29.888Z,17.70
2019-04-20T17:39:00.560Z,17.60
2019-04-20T17:41:49.980Z,17.50
2019-04-20T17:44:23.757Z,17.40
2019-04-20T17:46:45.051Z,17.30
2019-04-20T17:49:28.151Z,17.30
2019-04-20T17:52:11.942Z,17.30
2019-04-20T17:54:40.930Z,17.10
2019-04-20T17:57:13.085Z,17.10
2019-04-20T17:59:54.158Z,17.10
2019-04-20T18:02:58.597Z,17.00
2019-04-20T18:05:58.341Z,16.90
2019-04-20T18:08:26.451Z,16.90
2019-04-20T18:10:53.115Z,16.90
2019-04-20T18:13:19.914Z,16.80
2019-04-20T18:15:57.429Z,16.80
2019-04-20T18:18:48.773Z,16.70
2019-04-20T18:21:21.095Z,16.70
2019-04-20T18:23:51.824Z,16.60
2019-04-20T18:26:45.588Z,16.50
2019-04-20T18:29:10.759Z,16.50
2019-04-20T18:31:47.249Z,16.40
2019-04-20T18:34:25.244Z,16.40
2019-04-20T18:36:54.592Z,16.30
2019-04-20T18:39:33.331Z,16.30
2019-04-20T18:42:03.168Z,16.30
2019-04-20T18:44:39.097Z,16.20
2019-04-20T18:47:16.713Z,16.20
2019-04-20T18:49:43.146Z,16.10
2019-04-20T18:52:06.034Z,16.10
2019-04-20T18:54:41.960Z,16.10
2019-04-20T18:57:15.187Z,16.00
2019-04-20T18:59:49.454Z,16.00
2019-04-20T19:02:20.031Z,15.90
2019-04-20T19:04:50.193Z,15.90
2019-04-20T19:07:21.717Z,15.80
2019-04-20T19:10:05.760Z,15.80
2019-04-20T19:12:36.687Z,15.80
2019-04-20T19:15:34.739Z,15.70
2019-04-20T19:18:11.493Z,15.70
2019-04-20T19:20:35.088Z,15.70
2019-04-20T19:23:06.275Z,15.60
2019-04-20T19:25:40.955Z,15.50
2019-04-20T19:28:10.653Z,15.50
2019-04-20T19:30:49.926Z,15.30
2019-04-20T19:33:30.955Z,15.30
2019-04-20T19:35:56.079Z,15.10
2019-04-20T19:38:25.776Z,15.10
2019-04-20T19:41:01.956Z,15.00
2019-04-20T19:43:31.683Z,14.90
2019-04-20T19:46:37.894Z,14.90
2019-04-20T19:48:40.488Z,14.90
2019-04-20T19:51:24.057Z,14.80
2019-04-20T19:53:52.812Z,14.80
2019-04-20T19:56:22.553Z,14.70
2019-04-20T19:58:55.307Z,14.60
2019-04-20T20:01:11.645Z,14.50
2019-04-20T20:03:43.659Z,14.50
2019-04-20T20:06:23.713Z,14.40
2019-04-20T20:08:53.147Z,14.40
2019-04-20T20:11:26.474Z,14.30
2019-04-20T20:13:55.343Z,14.30
2019-04-20T20:16:50.682Z,14.30
2019-04-20T20:19:08.498Z,14.20
2019-04-20T20:21:48.315Z,14.20
2019-04-20T20:24:06.075Z,14.00
2019-04-20T20:26:44.887Z,14.00
2019-04-20T20:29:23.120Z,13.90
2019-04-20T20:31:58.127Z,13.90
2019-04-20T20:34:26.762Z,13.80
2019-04-20T20:36:54.647Z,13.80
2019-04-20T20:39:27.782Z,13.70
2019-04-20T20:42:08.959Z,13.80
2019-04-20T20:44:40.220Z,13.70
2019-04-20T20:47:21.694Z,13.70
2019-04-20T20:50:08.739Z,13.60
2019-04-20T20:52:28.745Z,13.60
2019-04-20T20:55:01.968Z,13.50
2019-04-20T20:57:37.080Z,13.50
2019-04-20T21:00:30.848Z,13.40
2019-04-20T21:02:58.134Z,13.40
2019-04-20T21:05:21.931Z,13.30
2019-04-20T21:07:53.309Z,13.30
2019-04-20T21:10:30.996Z,13.20
2019-04-20T21:12:57.915Z,13.10
2019-04-20T21:15:30.259Z,13.10
2019-04-20T21:18:26.253Z,13.00
2019-04-20T21:20:53.893Z,13.00
2019-04-20T21:23:25.175Z,12.90
2019-04-20T21:26:03.319Z,12.80
2019-04-20T21:28:40.057Z,12.70
2019-04-20T21:31:18.572Z,12.60
2019-04-20T21:33:45.011Z,12.50
2019-04-20T21:36:24.682Z,12.40
2019-04-20T21:38:51.905Z,12.20
2019-04-20T21:41:24.326Z,12.10
2019-04-20T21:43:56.244Z,12.00
2019-04-20T21:46:31.976Z,12.00
2019-04-20T21:49:12.872Z,12.00
2019-04-20T21:51:46.674Z,11.90
2019-04-20T21:54:09.666Z,12.00
2019-04-20T21:56:46.116Z,11.90
2019-04-20T21:59:20.505Z,11.80
2019-04-20T22:01:58.484Z,11.80
2019-04-20T22:04:27.517Z,11.70
2019-04-20T22:06:58.784Z,11.60
2019-04-20T22:09:34.562Z,11.60
2019-04-20T22:12:03.529Z,11.50
2019-04-20T22:14:39.710Z,11.50
2019-04-20T22:17:09.836Z,11.50
2019-04-20T22:19:45.772Z,11.40
2019-04-20T22:22:22.743Z,11.40
2019-04-20T22:24:57.788Z,11.40
2019-04-20T22:27:20.382Z,11.30
2019-04-20T22:29:48.150Z,11.30
2019-04-20T22:32:21.872Z,11.30
2019-04-20T22:34:57.026Z,11.20
2019-04-20T22:37:29.837Z,11.10
2019-04-20T22:39:59.928Z,11.10
2019-04-20T22:42:41.470Z,11.10
2019-04-20T22:45:09.852Z,11.00
2019-04-20T22:47:39.167Z,10.90
2019-04-20T22:50:31.880Z,10.90
2019-04-20T22:52:55.351Z,10.80
2019-04-20T22:55:38.989Z,10.80
2019-04-20T22:57:58.556Z,10.70
2019-04-20T23:00:33.234Z,10.60
2019-04-20T23:02:52.298Z,10.60
2019-04-20T23:05:23.197Z,10.60
2019-04-20T23:07:54.960Z,10.60
2019-04-20T23:10:33.567Z,10.70
2019-04-20T23:12:59.489Z,10.70
2019-04-20T23:15:28.034Z,10.70
2019-04-20T23:18:00.086Z,10.80
2019-04-20T23:20:32.647Z,10.70
2019-04-20T23:23:01.343Z,10.80
2019-04-20T23:25:31.499Z,10.90
2019-04-20T23:28:07.694Z,11.00
2019-04-20T23:30:37.527Z,11.00
2019-04-20T23:33:04.530Z,11.10
2019-04-20T23:35:37.626Z,11.10
2019-04-20T23:38:11.010Z,11.20
2019-04-20T23:40:39.571Z,11.30
2019-04-20T23:43:23.366Z,11.20
2019-04-20T23:46:19.364Z,11.30
2019-04-20T23:49:06.610Z,11.20
2019-04-20T23:51:55.354Z,11.20
2019-04-20T23:54:17.854Z,11.10
2019-04-20T23:56:43.833Z,11.20
2019-04-20T23:59:14.797Z,11.10
